sensor_id;sensor_type;location;lat;lon;timestamp;P1;durP1;ratioP1;P2;durP2;ratioP2
54157;SDS011;40065;49.894;10.358;2022-08-14T00:04:55;7.47;;;6.78;;
54157;SDS011;40065;49.894;10.358;2022-08-14T00:09:57;6.93;;;6.22;;
54157;SDS011;40065;49.894;10.358;2022-08-14T00:15:27;8.25;;;7.18;;
54157;SDS011;40065;49.894;10.358;2022-08-14T00:20:44;8.13;;;7.38;;
54157;SDS011;40065;49.894;10.358;2022-08-14T00:25:52;7.55;;;6.72;;
54157;SDS011;40065;49.894;10.358;2022-08-14T00:31:08;8.40;;;7.60;;
54157;SDS011;40065;49.894;10.358;2022-08-14T00:36:10;8.63;;;7.75;;
54157;SDS011;40065;49.894;10.358;2022-08-14T00:41:32;10.25;;;8.10;;
54157;SDS011;40065;49.894;10.358;2022-08-14T00:46:35;8.95;;;8.00;;
54157;SDS011;40065;49.894;10.358;2022-08-14T00:51:38;8.80;;;7.90;;
54157;SDS011;40065;49.894;10.358;2022-08-14T00:56:41;8.55;;;7.75;;
54157;SDS011;40065;49.894;10.358;2022-08-14T01:01:43;8.60;;;7.80;;
54157;SDS011;40065;49.894;10.358;2022-08-14T01:06:47;8.70;;;7.80;;
54157;SDS011;40065;49.894;10.358;2022-08-14T01:11:55;9.38;;;7.82;;
54157;SDS011;40065;49.894;10.358;2022-08-14T01:17:03;8.77;;;7.90;;
54157;SDS011;40065;49.894;10.358;2022-08-14T01:22:09;9.68;;;7.93;;
54157;SDS011;40065;49.894;10.358;2022-08-14T01:32:18;9.07;;;8.13;;
54157;SDS011;40065;49.894;10.358;2022-08-14T01:37:23;9.77;;;8.50;;
54157;SDS011;40065;49.894;10.358;2022-08-14T01:42:26;10.88;;;8.52;;
54157;SDS011;40065;49.894;10.358;2022-08-14T01:47:35;8.80;;;7.35;;
54157;SDS011;40065;49.894;10.358;2022-08-14T01:52:39;9.77;;;8.80;;
54157;SDS011;40065;49.894;10.358;2022-08-14T01:58:00;8.80;;;7.95;;
54157;SDS011;40065;49.894;10.358;2022-08-14T02:03:22;8.77;;;7.70;;
54157;SDS011;40065;49.894;10.358;2022-08-14T02:08:30;9.32;;;8.32;;
54157;SDS011;40065;49.894;10.358;2022-08-14T02:13:36;8.82;;;7.93;;
54157;SDS011;40065;49.894;10.358;2022-08-14T02:18:38;9.77;;;8.77;;
54157;SDS011;40065;49.894;10.358;2022-08-14T02:23:40;11.02;;;9.15;;
54157;SDS011;40065;49.894;10.358;2022-08-14T02:28:43;9.90;;;8.88;;
54157;SDS011;40065;49.894;10.358;2022-08-14T02:34:03;10.07;;;9.00;;
54157;SDS011;40065;49.894;10.358;2022-08-14T02:39:22;10.35;;;8.93;;
54157;SDS011;40065;49.894;10.358;2022-08-14T02:44:24;8.60;;;7.80;;
54157;SDS011;40065;49.894;10.358;2022-08-14T02:49:30;8.77;;;7.88;;
54157;SDS011;40065;49.894;10.358;2022-08-14T02:54:34;9.52;;;7.70;;
54157;SDS011;40065;49.894;10.358;2022-08-14T02:59:37;9.13;;;8.20;;
54157;SDS011;40065;49.894;10.358;2022-08-14T03:04:43;9.63;;;8.50;;
54157;SDS011;40065;49.894;10.358;2022-08-14T03:09:45;10.18;;;8.60;;
54157;SDS011;40065;49.894;10.358;2022-08-14T03:15:07;9.05;;;7.15;;
54157;SDS011;40065;49.894;10.358;2022-08-14T03:20:17;8.82;;;7.93;;
54157;SDS011;40065;49.894;10.358;2022-08-14T03:25:22;7.43;;;6.68;;
54157;SDS011;40065;49.894;10.358;2022-08-14T03:30:25;8.75;;;7.85;;
54157;SDS011;40065;49.894;10.358;2022-08-14T03:35:40;8.75;;;7.85;;
54157;SDS011;40065;49.894;10.358;2022-08-14T03:41:03;7.85;;;6.82;;
54157;SDS011;40065;49.894;10.358;2022-08-14T03:46:12;8.55;;;7.10;;
54157;SDS011;40065;49.894;10.358;2022-08-14T03:51:35;8.27;;;7.38;;
54157;SDS011;40065;49.894;10.358;2022-08-14T04:01:45;9.43;;;8.48;;
54157;SDS011;40065;49.894;10.358;2022-08-14T04:07:02;10.05;;;9.05;;
54157;SDS011;40065;49.894;10.358;2022-08-14T04:12:04;10.82;;;8.35;;
54157;SDS011;40065;49.894;10.358;2022-08-14T04:17:08;9.73;;;8.75;;
54157;SDS011;40065;49.894;10.358;2022-08-14T04:22:13;10.75;;;9.60;;
54157;SDS011;40065;49.894;10.358;2022-08-14T04:32:19;10.13;;;8.95;;
54157;SDS011;40065;49.894;10.358;2022-08-14T04:37:46;10.20;;;8.98;;
54157;SDS011;40065;49.894;10.358;2022-08-14T04:43:26;8.98;;;7.70;;
54157;SDS011;40065;49.894;10.358;2022-08-14T04:48:39;9.33;;;7.97;;
54157;SDS011;40065;49.894;10.358;2022-08-14T04:53:48;8.85;;;7.95;;
54157;SDS011;40065;49.894;10.358;2022-08-14T04:58:57;8.98;;;7.60;;
54157;SDS011;40065;49.894;10.358;2022-08-14T05:04:02;8.70;;;7.80;;
54157;SDS011;40065;49.894;10.358;2022-08-14T05:09:07;11.30;;;8.95;;
54157;SDS011;40065;49.894;10.358;2022-08-14T05:14:14;10.93;;;7.68;;
54157;SDS011;40065;49.894;10.358;2022-08-14T05:19:36;9.10;;;7.90;;
54157;SDS011;40065;49.894;10.358;2022-08-14T05:24:58;7.78;;;6.97;;
54157;SDS011;40065;49.894;10.358;2022-08-14T05:30:03;9.45;;;6.88;;
54157;SDS011;40065;49.894;10.358;2022-08-14T05:35:06;7.50;;;5.70;;
54157;SDS011;40065;49.894;10.358;2022-08-14T05:40:08;7.80;;;6.97;;
54157;SDS011;40065;49.894;10.358;2022-08-14T05:45:12;7.28;;;6.57;;
54157;SDS011;40065;49.894;10.358;2022-08-14T05:50:17;6.63;;;5.95;;
54157;SDS011;40065;49.894;10.358;2022-08-14T05:55:20;8.23;;;5.97;;
54157;SDS011;40065;49.894;10.358;2022-08-14T06:00:26;7.78;;;6.32;;
54157;SDS011;40065;49.894;10.358;2022-08-14T06:05:39;6.03;;;5.40;;
54157;SDS011;40065;49.894;10.358;2022-08-14T06:10:43;5.72;;;5.13;;
54157;SDS011;40065;49.894;10.358;2022-08-14T06:15:45;7.03;;;6.32;;
54157;SDS011;40065;49.894;10.358;2022-08-14T06:20:49;7.32;;;5.63;;
54157;SDS011;40065;49.894;10.358;2022-08-14T06:25:51;5.38;;;4.80;;
54157;SDS011;40065;49.894;10.358;2022-08-14T06:30:53;6.00;;;5.40;;
54157;SDS011;40065;49.894;10.358;2022-08-14T06:35:56;5.28;;;4.78;;
54157;SDS011;40065;49.894;10.358;2022-08-14T06:46:00;6.82;;;4.38;;
54157;SDS011;40065;49.894;10.358;2022-08-14T06:51:04;5.38;;;4.53;;
54157;SDS011;40065;49.894;10.358;2022-08-14T06:56:06;6.20;;;4.80;;
54157;SDS011;40065;49.894;10.358;2022-08-14T07:01:08;5.17;;;4.67;;
54157;SDS011;40065;49.894;10.358;2022-08-14T07:06:31;6.68;;;4.63;;
54157;SDS011;40065;49.894;10.358;2022-08-14T07:11:47;5.55;;;4.88;;
54157;SDS011;40065;49.894;10.358;2022-08-14T07:16:50;4.65;;;4.20;;
54157;SDS011;40065;49.894;10.358;2022-08-14T07:21:52;4.90;;;4.40;;
54157;SDS011;40065;49.894;10.358;2022-08-14T07:26:54;5.43;;;4.27;;
54157;SDS011;40065;49.894;10.358;2022-08-14T07:31:56;4.63;;;4.10;;
54157;SDS011;40065;49.894;10.358;2022-08-14T07:36:58;5.10;;;4.13;;
54157;SDS011;40065;49.894;10.358;2022-08-14T07:42:01;4.50;;;4.10;;
54157;SDS011;40065;49.894;10.358;2022-08-14T07:47:04;4.47;;;4.07;;
54157;SDS011;40065;49.894;10.358;2022-08-14T07:52:06;5.10;;;4.40;;
54157;SDS011;40065;49.894;10.358;2022-08-14T07:57:08;4.78;;;4.28;;
54157;SDS011;40065;49.894;10.358;2022-08-14T08:02:15;6.50;;;3.83;;
54157;SDS011;40065;49.894;10.358;2022-08-14T08:07:24;4.75;;;4.28;;
54157;SDS011;40065;49.894;10.358;2022-08-14T08:12:30;5.28;;;4.78;;
54157;SDS011;40065;49.894;10.358;2022-08-14T08:17:35;5.00;;;4.50;;
54157;SDS011;40065;49.894;10.358;2022-08-14T08:22:39;5.18;;;4.68;;
54157;SDS011;40065;49.894;10.358;2022-08-14T08:27:56;4.13;;;3.72;;
54157;SDS011;40065;49.894;10.358;2022-08-14T08:33:08;5.10;;;4.22;;
54157;SDS011;40065;49.894;10.358;2022-08-14T08:38:14;4.18;;;3.58;;
54157;SDS011;40065;49.894;10.358;2022-08-14T08:43:41;7.63;;;3.65;;
54157;SDS011;40065;49.894;10.358;2022-08-14T08:48:51;4.68;;;3.95;;
54157;SDS011;40065;49.894;10.358;2022-08-14T08:54:00;3.92;;;3.35;;
54157;SDS011;40065;49.894;10.358;2022-08-14T08:59:15;6.22;;;3.60;;
54157;SDS011;40065;49.894;10.358;2022-08-14T09:04:20;4.50;;;3.58;;
54157;SDS011;40065;49.894;10.358;2022-08-14T09:09:24;4.47;;;3.05;;
54157;SDS011;40065;49.894;10.358;2022-08-14T09:14:34;5.28;;;3.63;;
54157;SDS011;40065;49.894;10.358;2022-08-14T09:19:40;3.80;;;3.22;;
54157;SDS011;40065;49.894;10.358;2022-08-14T09:24:42;3.45;;;3.15;;
54157;SDS011;40065;49.894;10.358;2022-08-14T09:29:48;3.50;;;3.00;;
54157;SDS011;40065;49.894;10.358;2022-08-14T09:34:59;3.50;;;3.10;;
54157;SDS011;40065;49.894;10.358;2022-08-14T09:45:47;4.57;;;3.47;;
54157;SDS011;40065;49.894;10.358;2022-08-14T09:50:55;4.20;;;3.50;;
54157;SDS011;40065;49.894;10.358;2022-08-14T09:55:58;3.55;;;3.20;;
54157;SDS011;40065;49.894;10.358;2022-08-14T10:01:06;4.07;;;3.30;;
54157;SDS011;40065;49.894;10.358;2022-08-14T10:06:16;3.40;;;3.10;;
54157;SDS011;40065;49.894;10.358;2022-08-14T10:16:40;3.45;;;3.03;;
54157;SDS011;40065;49.894;10.358;2022-08-14T10:22:07;3.30;;;3.00;;
54157;SDS011;40065;49.894;10.358;2022-08-14T10:27:30;3.67;;;3.10;;
54157;SDS011;40065;49.894;10.358;2022-08-14T10:32:41;3.95;;;3.30;;
54157;SDS011;40065;49.894;10.358;2022-08-14T10:37:51;4.53;;;3.20;;
54157;SDS011;40065;49.894;10.358;2022-08-14T10:47:56;4.97;;;3.63;;
54157;SDS011;40065;49.894;10.358;2022-08-14T10:53:10;4.45;;;3.33;;
54157;SDS011;40065;49.894;10.358;2022-08-14T10:58:25;6.05;;;3.50;;
54157;SDS011;40065;49.894;10.358;2022-08-14T11:03:38;4.05;;;3.40;;
54157;SDS011;40065;49.894;10.358;2022-08-14T11:08:57;3.97;;;3.45;;
54157;SDS011;40065;49.894;10.358;2022-08-14T11:19:04;4.47;;;3.65;;
54157;SDS011;40065;49.894;10.358;2022-08-14T11:24:08;4.97;;;4.25;;
54157;SDS011;40065;49.894;10.358;2022-08-14T11:29:34;3.72;;;3.25;;
54157;SDS011;40065;49.894;10.358;2022-08-14T11:34:37;3.97;;;3.10;;
54157;SDS011;40065;49.894;10.358;2022-08-14T11:39:39;3.88;;;3.47;;
54157;SDS011;40065;49.894;10.358;2022-08-14T11:44:45;5.53;;;3.33;;
54157;SDS011;40065;49.894;10.358;2022-08-14T11:49:54;4.53;;;3.30;;
54157;SDS011;40065;49.894;10.358;2022-08-14T11:54:58;4.38;;;3.65;;
54157;SDS011;40065;49.894;10.358;2022-08-14T12:00:04;4.65;;;3.65;;
54157;SDS011;40065;49.894;10.358;2022-08-14T12:05:15;5.22;;;3.30;;
54157;SDS011;40065;49.894;10.358;2022-08-14T12:10:18;5.53;;;3.90;;
54157;SDS011;40065;49.894;10.358;2022-08-14T12:15:37;5.07;;;3.25;;
54157;SDS011;40065;49.894;10.358;2022-08-14T12:20:45;3.47;;;3.15;;
54157;SDS011;40065;49.894;10.358;2022-08-14T12:26:03;3.63;;;3.15;;
54157;SDS011;40065;49.894;10.358;2022-08-14T12:31:26;3.90;;;3.50;;
54157;SDS011;40065;49.894;10.358;2022-08-14T12:36:36;4.45;;;3.35;;
54157;SDS011;40065;49.894;10.358;2022-08-14T12:41:39;3.47;;;3.10;;
54157;SDS011;40065;49.894;10.358;2022-08-14T12:47:03;4.47;;;3.28;;
54157;SDS011;40065;49.894;10.358;2022-08-14T12:52:15;3.55;;;3.00;;
54157;SDS011;40065;49.894;10.358;2022-08-14T12:57:54;3.33;;;2.58;;
54157;SDS011;40065;49.894;10.358;2022-08-14T13:03:00;3.38;;;2.80;;
54157;SDS011;40065;49.894;10.358;2022-08-14T13:08:03;3.10;;;2.80;;
54157;SDS011;40065;49.894;10.358;2022-08-14T13:13:26;4.72;;;2.90;;
54157;SDS011;40065;49.894;10.358;2022-08-14T13:18:33;3.42;;;2.60;;
54157;SDS011;40065;49.894;10.358;2022-08-14T13:23:40;2.65;;;2.40;;
54157;SDS011;40065;49.894;10.358;2022-08-14T13:28:45;3.30;;;2.70;;
54157;SDS011;40065;49.894;10.358;2022-08-14T13:34:04;3.75;;;2.80;;
54157;SDS011;40065;49.894;10.358;2022-08-14T13:39:07;5.13;;;2.75;;
54157;SDS011;40065;49.894;10.358;2022-08-14T13:44:13;3.42;;;2.50;;
54157;SDS011;40065;49.894;10.358;2022-08-14T13:49:26;3.30;;;2.85;;
54157;SDS011;40065;49.894;10.358;2022-08-14T13:54:29;4.72;;;2.80;;
54157;SDS011;40065;49.894;10.358;2022-08-14T13:59:34;3.95;;;3.00;;
54157;SDS011;40065;49.894;10.358;2022-08-14T14:04:40;3.38;;;2.80;;
54157;SDS011;40065;49.894;10.358;2022-08-14T14:09:49;3.92;;;2.88;;
54157;SDS011;40065;49.894;10.358;2022-08-14T14:14:58;4.03;;;2.80;;
54157;SDS011;40065;49.894;10.358;2022-08-14T14:20:07;2.80;;;2.60;;
54157;SDS011;40065;49.894;10.358;2022-08-14T14:25:34;4.47;;;3.20;;
54157;SDS011;40065;49.894;10.358;2022-08-14T14:30:57;3.60;;;2.97;;
54157;SDS011;40065;49.894;10.358;2022-08-14T14:36:07;3.40;;;3.10;;
54157;SDS011;40065;49.894;10.358;2022-08-14T14:41:14;3.47;;;3.13;;
54157;SDS011;40065;49.894;10.358;2022-08-14T14:46:21;4.10;;;3.40;;
54157;SDS011;40065;49.894;10.358;2022-08-14T14:51:37;5.60;;;3.10;;
54157;SDS011;40065;49.894;10.358;2022-08-14T14:56:43;4.85;;;3.35;;
54157;SDS011;40065;49.894;10.358;2022-08-14T15:01:53;4.28;;;3.60;;
54157;SDS011;40065;49.894;10.358;2022-08-14T15:06:59;3.80;;;3.30;;
54157;SDS011;40065;49.894;10.358;2022-08-14T15:12:03;4.07;;;3.67;;
54157;SDS011;40065;49.894;10.358;2022-08-14T15:17:25;4.60;;;3.90;;
54157;SDS011;40065;49.894;10.358;2022-08-14T15:22:38;5.25;;;3.47;;
54157;SDS011;40065;49.894;10.358;2022-08-14T15:27:51;5.32;;;3.60;;
54157;SDS011;40065;49.894;10.358;2022-08-14T15:32:55;3.60;;;3.20;;
54157;SDS011;40065;49.894;10.358;2022-08-14T15:37:57;3.58;;;3.22;;
54157;SDS011;40065;49.894;10.358;2022-08-14T15:43:09;3.97;;;3.57;;
54157;SDS011;40065;49.894;10.358;2022-08-14T15:48:13;4.40;;;4.00;;
54157;SDS011;40065;49.894;10.358;2022-08-14T15:53:23;5.40;;;3.72;;
54157;SDS011;40065;49.894;10.358;2022-08-14T15:58:31;4.07;;;3.53;;
54157;SDS011;40065;49.894;10.358;2022-08-14T16:08:43;5.60;;;3.90;;
54157;SDS011;40065;49.894;10.358;2022-08-14T16:13:50;3.83;;;3.40;;
54157;SDS011;40065;49.894;10.358;2022-08-14T16:18:57;4.18;;;3.78;;
54157;SDS011;40065;49.894;10.358;2022-08-14T16:24:00;4.35;;;3.63;;
54157;SDS011;40065;49.894;10.358;2022-08-14T16:29:03;4.05;;;3.53;;
54157;SDS011;40065;49.894;10.358;2022-08-14T16:34:08;4.25;;;3.63;;
54157;SDS011;40065;49.894;10.358;2022-08-14T16:39:30;3.80;;;3.25;;
54157;SDS011;40065;49.894;10.358;2022-08-14T16:44:52;4.35;;;3.67;;
54157;SDS011;40065;49.894;10.358;2022-08-14T16:49:55;5.47;;;3.60;;
54157;SDS011;40065;49.894;10.358;2022-08-14T16:55:10;4.18;;;3.78;;
54157;SDS011;40065;49.894;10.358;2022-08-14T17:05:44;4.30;;;3.35;;
54157;SDS011;40065;49.894;10.358;2022-08-14T17:16:08;3.60;;;3.30;;
54157;SDS011;40065;49.894;10.358;2022-08-14T17:21:27;3.90;;;3.50;;
54157;SDS011;40065;49.894;10.358;2022-08-14T17:26:34;4.32;;;3.45;;
54157;SDS011;40065;49.894;10.358;2022-08-14T17:31:46;4.15;;;3.20;;
54157;SDS011;40065;49.894;10.358;2022-08-14T17:37:02;4.18;;;3.10;;
54157;SDS011;40065;49.894;10.358;2022-08-14T17:42:04;4.35;;;3.50;;
54157;SDS011;40065;49.894;10.358;2022-08-14T17:47:13;5.47;;;3.83;;
54157;SDS011;40065;49.894;10.358;2022-08-14T17:52:19;4.68;;;3.55;;
54157;SDS011;40065;49.894;10.358;2022-08-14T17:57:37;3.78;;;3.38;;
54157;SDS011;40065;49.894;10.358;2022-08-14T18:02:41;5.75;;;3.72;;
54157;SDS011;40065;49.894;10.358;2022-08-14T18:07:52;4.00;;;3.22;;
54157;SDS011;40065;49.894;10.358;2022-08-14T18:13:14;4.10;;;3.70;;
54157;SDS011;40065;49.894;10.358;2022-08-14T18:18:16;3.63;;;3.33;;
54157;SDS011;40065;49.894;10.358;2022-08-14T18:23:18;4.43;;;3.40;;
54157;SDS011;40065;49.894;10.358;2022-08-14T18:28:22;4.80;;;3.70;;
54157;SDS011;40065;49.894;10.358;2022-08-14T18:33:52;5.15;;;3.65;;
54157;SDS011;40065;49.894;10.358;2022-08-14T18:50:04;4.10;;;3.65;;
54157;SDS011;40065;49.894;10.358;2022-08-14T19:10:49;5.40;;;3.85;;
54157;SDS011;40065;49.894;10.358;2022-08-14T19:16:15;4.72;;;3.47;;
54157;SDS011;40065;49.894;10.358;2022-08-14T19:26:30;4.90;;;4.25;;
54157;SDS011;40065;49.894;10.358;2022-08-14T19:31:52;4.88;;;4.28;;
54157;SDS011;40065;49.894;10.358;2022-08-14T19:36:59;4.57;;;4.07;;
54157;SDS011;40065;49.894;10.358;2022-08-14T19:42:07;4.90;;;3.88;;
54157;SDS011;40065;49.894;10.358;2022-08-14T19:47:13;6.63;;;4.03;;
54157;SDS011;40065;49.894;10.358;2022-08-14T19:57:29;4.25;;;3.80;;
54157;SDS011;40065;49.894;10.358;2022-08-14T20:02:31;5.47;;;3.85;;
54157;SDS011;40065;49.894;10.358;2022-08-14T20:07:38;6.53;;;4.00;;
54157;SDS011;40065;49.894;10.358;2022-08-14T20:13:05;5.63;;;4.00;;
54157;SDS011;40065;49.894;10.358;2022-08-14T20:18:08;4.30;;;3.65;;
54157;SDS011;40065;49.894;10.358;2022-08-14T20:23:30;6.60;;;4.15;;
54157;SDS011;40065;49.894;10.358;2022-08-14T20:28:39;4.30;;;3.90;;
54157;SDS011;40065;49.894;10.358;2022-08-14T20:34:04;4.40;;;4.00;;
54157;SDS011;40065;49.894;10.358;2022-08-14T20:39:19;4.18;;;3.70;;
54157;SDS011;40065;49.894;10.358;2022-08-14T20:44:41;6.53;;;3.78;;
54157;SDS011;40065;49.894;10.358;2022-08-14T20:50:17;4.78;;;3.83;;
54157;SDS011;40065;49.894;10.358;2022-08-14T20:55:30;3.75;;;3.40;;
54157;SDS011;40065;49.894;10.358;2022-08-14T21:00:42;5.23;;;4.07;;
54157;SDS011;40065;49.894;10.358;2022-08-14T21:06:15;5.55;;;4.05;;
54157;SDS011;40065;49.894;10.358;2022-08-14T21:11:21;7.20;;;4.30;;
54157;SDS011;40065;49.894;10.358;2022-08-14T21:16:24;5.82;;;4.75;;
54157;SDS011;40065;49.894;10.358;2022-08-14T21:26:42;4.65;;;4.03;;
54157;SDS011;40065;49.894;10.358;2022-08-14T21:32:04;5.43;;;4.55;;
54157;SDS011;40065;49.894;10.358;2022-08-14T21:37:21;5.53;;;4.53;;
54157;SDS011;40065;49.894;10.358;2022-08-14T21:42:23;4.73;;;4.17;;
54157;SDS011;40065;49.894;10.358;2022-08-14T21:47:28;5.78;;;4.40;;
54157;SDS011;40065;49.894;10.358;2022-08-14T21:52:30;5.32;;;4.30;;
54157;SDS011;40065;49.894;10.358;2022-08-14T21:57:52;6.90;;;4.27;;
54157;SDS011;40065;49.894;10.358;2022-08-14T22:03:17;4.72;;;4.15;;
54157;SDS011;40065;49.894;10.358;2022-08-14T22:08:24;6.93;;;4.70;;
54157;SDS011;40065;49.894;10.358;2022-08-14T22:13:27;5.88;;;4.72;;
54157;SDS011;40065;49.894;10.358;2022-08-14T22:18:32;6.05;;;4.50;;
54157;SDS011;40065;49.894;10.358;2022-08-14T22:23:36;6.28;;;4.97;;
54157;SDS011;40065;49.894;10.358;2022-08-14T22:28:40;5.65;;;4.65;;
54157;SDS011;40065;49.894;10.358;2022-08-14T22:33:46;5.28;;;4.25;;
54157;SDS011;40065;49.894;10.358;2022-08-14T22:38:50;5.28;;;4.55;;
54157;SDS011;40065;49.894;10.358;2022-08-14T22:44:00;6.50;;;4.68;;
54157;SDS011;40065;49.894;10.358;2022-08-14T22:49:11;5.30;;;4.57;;
54157;SDS011;40065;49.894;10.358;2022-08-14T22:54:25;5.75;;;4.90;;
54157;SDS011;40065;49.894;10.358;2022-08-14T22:59:50;5.63;;;4.70;;
54157;SDS011;40065;49.894;10.358;2022-08-14T23:04:52;5.35;;;4.22;;
54157;SDS011;40065;49.894;10.358;2022-08-14T23:09:56;5.47;;;4.30;;
54157;SDS011;40065;49.894;10.358;2022-08-14T23:15:20;5.43;;;4.50;;
54157;SDS011;40065;49.894;10.358;2022-08-14T23:20:23;5.78;;;4.80;;
54157;SDS011;40065;49.894;10.358;2022-08-14T23:25:30;5.10;;;4.50;;
54157;SDS011;40065;49.894;10.358;2022-08-14T23:30:52;5.50;;;4.25;;
54157;SDS011;40065;49.894;10.358;2022-08-14T23:35:55;4.82;;;4.20;;
54157;SDS011;40065;49.894;10.358;2022-08-14T23:41:01;5.78;;;4.40;;
54157;SDS011;40065;49.894;10.358;2022-08-14T23:46:04;4.80;;;4.03;;
54157;SDS011;40065;49.894;10.358;2022-08-14T23:51:13;8.27;;;4.40;;
54157;SDS011;40065;49.894;10.358;2022-08-14T23:56:21;6.10;;;4.28;;
